sensor_id;sensor_type;location;lat;lon;timestamp;pressure;altitude;pressure_sealevel;temperature;humidity
216;BME280;64590;48.81286795;9.14184224;2023-02-02T00:00:43;98882.94;;;6.63;67.11
216;BME280;64590;48.81286795;9.14184224;2023-02-02T00:03:10;98887.66;;;6.62;67.19
216;BME280;64590;48.81286795;9.14184224;2023-02-02T00:05:36;98877.59;;;6.54;67.90
216;BME280;64590;48.81286795;9.14184224;2023-02-02T00:08:04;98878.03;;;6.56;67.45
216;BME280;64590;48.81286795;9.14184224;2023-02-02T00:10:30;98875.00;;;6.45;68.18
216;BME280;64590;48.81286795;9.14184224;2023-02-02T00:12:58;98868.00;;;6.64;67.58
216;BME280;64590;48.81286795;9.14184224;2023-02-02T00:15:25;98868.91;;;6.40;68.05
216;BME280;64590;48.81286795;9.14184224;2023-02-02T00:17:51;98865.91;;;6.45;67.94
216;BME280;64590;48.81286795;9.14184224;2023-02-02T00:20:18;98858.72;;;6.56;67.81
216;BME280;64590;48.81286795;9.14184224;2023-02-02T00:22:46;98863.81;;;6.54;67.35
216;BME280;64590;48.81286795;9.14184224;2023-02-02T00:25:13;98870.19;;;6.58;67.48
216;BME280;64590;48.81286795;9.14184224;2023-02-02T00:27:39;98850.63;;;6.47;67.44
216;BME280;64590;48.81286795;9.14184224;2023-02-02T00:30:09;98876.44;;;6.55;67.33
216;BME280;64590;48.81286795;9.14184224;2023-02-02T00:32:37;98884.28;;;6.69;67.62
216;BME280;64590;48.81286795;9.14184224;2023-02-02T00:35:05;98883.84;;;6.67;68.15
216;BME280;64590;48.81286795;9.14184224;2023-02-02T00:37:32;98869.94;;;6.63;67.85
216;BME280;64590;48.81286795;9.14184224;2023-02-02T00:39:59;98878.06;;;6.72;68.01
216;BME280;64590;48.81286795;9.14184224;2023-02-02T00:42:25;98877.25;;;6.71;67.69
216;BME280;64590;48.81286795;9.14184224;2023-02-02T00:44:52;98873.50;;;6.64;67.83
216;BME280;64590;48.81286795;9.14184224;2023-02-02T00:47:37;98874.03;;;6.54;68.60
216;BME280;64590;48.81286795;9.14184224;2023-02-02T00:50:05;98875.63;;;6.55;68.26
216;BME280;64590;48.81286795;9.14184224;2023-02-02T00:52:32;98868.34;;;6.62;68.33
216;BME280;64590;48.81286795;9.14184224;2023-02-02T00:54:58;98855.56;;;6.42;68.20
216;BME280;64590;48.81286795;9.14184224;2023-02-02T00:57:25;98861.56;;;6.44;69.07
216;BME280;64590;48.81286795;9.14184224;2023-02-02T00:59:51;98864.97;;;6.53;68.70
216;BME280;64590;48.81286795;9.14184224;2023-02-02T01:02:18;98855.41;;;6.50;68.98
216;BME280;64590;48.81286795;9.14184224;2023-02-02T01:04:46;98857.94;;;6.56;69.08
216;BME280;64590;48.81286795;9.14184224;2023-02-02T01:07:13;98856.53;;;6.62;68.61
216;BME280;64590;48.81286795;9.14184224;2023-02-02T01:09:40;98873.69;;;6.55;68.60
216;BME280;64590;48.81286795;9.14184224;2023-02-02T01:12:06;98867.34;;;6.55;69.17
216;BME280;64590;48.81286795;9.14184224;2023-02-02T01:14:33;98873.94;;;6.66;68.85
216;BME280;64590;48.81286795;9.14184224;2023-02-02T01:16:59;98867.88;;;6.60;69.24
216;BME280;64590;48.81286795;9.14184224;2023-02-02T01:19:26;98865.59;;;6.62;69.40
216;BME280;64590;48.81286795;9.14184224;2023-02-02T01:21:54;98870.63;;;6.60;69.71
216;BME280;64590;48.81286795;9.14184224;2023-02-02T01:24:21;98875.69;;;6.42;70.00
216;BME280;64590;48.81286795;9.14184224;2023-02-02T01:26:47;98883.09;;;6.54;70.22
216;BME280;64590;48.81286795;9.14184224;2023-02-02T01:29:14;98886.47;;;6.47;70.53
216;BME280;64590;48.81286795;9.14184224;2023-02-02T01:31:41;98882.09;;;6.46;70.67
216;BME280;64590;48.81286795;9.14184224;2023-02-02T01:34:08;98882.41;;;6.29;71.53
216;BME280;64590;48.81286795;9.14184224;2023-02-02T01:36:35;98887.78;;;6.38;71.45
216;BME280;64590;48.81286795;9.14184224;2023-02-02T01:39:03;98876.91;;;6.29;72.21
216;BME280;64590;48.81286795;9.14184224;2023-02-02T01:41:30;98883.72;;;6.19;72.30
216;BME280;64590;48.81286795;9.14184224;2023-02-02T01:43:58;98884.00;;;6.30;72.78
216;BME280;64590;48.81286795;9.14184224;2023-02-02T01:46:27;98884.31;;;6.41;72.35
216;BME280;64590;48.81286795;9.14184224;2023-02-02T01:48:58;98884.59;;;6.23;72.78
216;BME280;64590;48.81286795;9.14184224;2023-02-02T01:51:30;98876.91;;;6.29;73.00
216;BME280;64590;48.81286795;9.14184224;2023-02-02T01:53:58;98887.22;;;6.32;72.78
216;BME280;64590;48.81286795;9.14184224;2023-02-02T01:56:31;98879.84;;;6.36;72.89
216;BME280;64590;48.81286795;9.14184224;2023-02-02T01:58:58;98883.28;;;6.33;72.53
216;BME280;64590;48.81286795;9.14184224;2023-02-02T02:01:26;98885.97;;;6.30;72.66
216;BME280;64590;48.81286795;9.14184224;2023-02-02T02:03:53;98884.47;;;6.32;73.01
216;BME280;64590;48.81286795;9.14184224;2023-02-02T02:06:21;98867.53;;;6.18;72.58
216;BME280;64590;48.81286795;9.14184224;2023-02-02T02:08:53;98875.75;;;6.30;72.78
216;BME280;64590;48.81286795;9.14184224;2023-02-02T02:11:22;98876.44;;;6.27;72.99
216;BME280;64590;48.81286795;9.14184224;2023-02-02T02:13:51;98866.88;;;6.37;72.61
216;BME280;64590;48.81286795;9.14184224;2023-02-02T02:16:45;98868.72;;;6.33;73.27
216;BME280;64590;48.81286795;9.14184224;2023-02-02T02:22:26;98892.69;;;6.44;72.79
216;BME280;64590;48.81286795;9.14184224;2023-02-02T02:25:32;98880.38;;;6.26;73.38
216;BME280;64590;48.81286795;9.14184224;2023-02-02T02:28:47;98870.38;;;6.21;74.13
216;BME280;64590;48.81286795;9.14184224;2023-02-02T02:34:34;98897.06;;;6.45;72.50
216;BME280;64590;48.81286795;9.14184224;2023-02-02T02:37:09;98886.84;;;6.34;73.42
216;BME280;64590;48.81286795;9.14184224;2023-02-02T02:39:40;98881.97;;;6.27;73.56
216;BME280;64590;48.81286795;9.14184224;2023-02-02T02:42:12;98879.28;;;6.31;73.73
216;BME280;64590;48.81286795;9.14184224;2023-02-02T02:44:40;98877.31;;;6.43;73.11
216;BME280;64590;48.81286795;9.14184224;2023-02-02T02:47:07;98870.16;;;6.42;73.06
216;BME280;64590;48.81286795;9.14184224;2023-02-02T02:49:42;98872.97;;;6.30;73.80
216;BME280;64590;48.81286795;9.14184224;2023-02-02T02:52:09;98872.19;;;6.30;73.94
216;BME280;64590;48.81286795;9.14184224;2023-02-02T02:54:40;98844.06;;;6.24;73.75
216;BME280;64590;48.81286795;9.14184224;2023-02-02T02:57:20;98880.75;;;6.40;73.42
216;BME280;64590;48.81286795;9.14184224;2023-02-02T02:59:56;98874.34;;;6.36;73.52
216;BME280;64590;48.81286795;9.14184224;2023-02-02T03:02:34;98879.16;;;6.39;73.60
216;BME280;64590;48.81286795;9.14184224;2023-02-02T03:05:11;98896.44;;;6.52;73.30
216;BME280;64590;48.81286795;9.14184224;2023-02-02T03:07:46;98888.56;;;6.38;73.61
216;BME280;64590;48.81286795;9.14184224;2023-02-02T03:10:16;98887.69;;;6.34;73.75
216;BME280;64590;48.81286795;9.14184224;2023-02-02T03:12:44;98888.72;;;6.30;74.11
216;BME280;64590;48.81286795;9.14184224;2023-02-02T03:15:12;98883.28;;;6.33;74.09
216;BME280;64590;48.81286795;9.14184224;2023-02-02T03:17:40;98892.03;;;6.35;73.96
216;BME280;64590;48.81286795;9.14184224;2023-02-02T03:20:09;98878.53;;;6.46;73.72
216;BME280;64590;48.81286795;9.14184224;2023-02-02T03:22:36;98885.47;;;6.40;73.78
216;BME280;64590;48.81286795;9.14184224;2023-02-02T03:25:03;98885.16;;;6.29;73.64
216;BME280;64590;48.81286795;9.14184224;2023-02-02T03:27:30;98886.16;;;6.37;73.71
216;BME280;64590;48.81286795;9.14184224;2023-02-02T03:29:57;98868.06;;;6.23;73.70
216;BME280;64590;48.81286795;9.14184224;2023-02-02T03:32:25;98868.91;;;6.40;73.47
216;BME280;64590;48.81286795;9.14184224;2023-02-02T03:34:52;98873.06;;;6.34;73.56
216;BME280;64590;48.81286795;9.14184224;2023-02-02T03:37:19;98880.50;;;6.45;73.14
216;BME280;64590;48.81286795;9.14184224;2023-02-02T03:39:46;98876.44;;;6.55;73.29
216;BME280;64590;48.81286795;9.14184224;2023-02-02T03:42:13;98880.38;;;6.42;73.06
216;BME280;64590;48.81286795;9.14184224;2023-02-02T03:44:39;98882.97;;;6.35;73.74
216;BME280;64590;48.81286795;9.14184224;2023-02-02T03:47:06;98879.88;;;6.24;73.98
216;BME280;64590;48.81286795;9.14184224;2023-02-02T03:49:32;98877.94;;;6.24;74.08
216;BME280;64590;48.81286795;9.14184224;2023-02-02T03:51:59;98883.22;;;6.30;74.11
216;BME280;64590;48.81286795;9.14184224;2023-02-02T03:54:28;98892.03;;;6.35;74.30
216;BME280;64590;48.81286795;9.14184224;2023-02-02T03:56:54;98897.88;;;6.34;74.20
216;BME280;64590;48.81286795;9.14184224;2023-02-02T03:59:21;98884.25;;;6.25;74.50
216;BME280;64590;48.81286795;9.14184224;2023-02-02T04:01:48;98897.72;;;6.27;74.55
216;BME280;64590;48.81286795;9.14184224;2023-02-02T04:04:15;98894.81;;;6.35;74.31
216;BME280;64590;48.81286795;9.14184224;2023-02-02T04:06:41;98894.25;;;6.30;74.35
216;BME280;64590;48.81286795;9.14184224;2023-02-02T04:09:08;98889.88;;;6.29;74.37
216;BME280;64590;48.81286795;9.14184224;2023-02-02T04:11:36;98903.25;;;6.42;73.86
216;BME280;64590;48.81286795;9.14184224;2023-02-02T04:14:02;98898.81;;;6.38;74.08
216;BME280;64590;48.81286795;9.14184224;2023-02-02T04:16:29;98901.31;;;6.43;73.95
216;BME280;64590;48.81286795;9.14184224;2023-02-02T04:18:59;98909.41;;;6.23;74.50
216;BME280;64590;48.81286795;9.14184224;2023-02-02T04:21:25;98902.66;;;6.21;74.85
216;BME280;64590;48.81286795;9.14184224;2023-02-02T04:23:52;98906.22;;;6.21;74.69
216;BME280;64590;48.81286795;9.14184224;2023-02-02T04:26:19;98908.91;;;6.34;74.30
216;BME280;64590;48.81286795;9.14184224;2023-02-02T04:28:46;98914.91;;;6.36;74.47
216;BME280;64590;48.81286795;9.14184224;2023-02-02T04:31:13;98918.69;;;6.31;74.35
216;BME280;64590;48.81286795;9.14184224;2023-02-02T04:33:39;98917.44;;;6.29;74.38
216;BME280;64590;48.81286795;9.14184224;2023-02-02T04:36:07;98910.19;;;6.36;74.34
216;BME280;64590;48.81286795;9.14184224;2023-02-02T04:38:33;98921.44;;;6.43;73.93
216;BME280;64590;48.81286795;9.14184224;2023-02-02T04:41:05;98919.56;;;6.47;73.48
216;BME280;64590;48.81286795;9.14184224;2023-02-02T04:43:32;98915.69;;;6.36;73.89
216;BME280;64590;48.81286795;9.14184224;2023-02-02T04:46:00;98921.94;;;6.49;73.80
216;BME280;64590;48.81286795;9.14184224;2023-02-02T04:48:27;98927.47;;;6.49;73.67
216;BME280;64590;48.81286795;9.14184224;2023-02-02T04:50:57;98931.09;;;6.37;73.85
216;BME280;64590;48.81286795;9.14184224;2023-02-02T04:53:25;98932.19;;;6.48;73.31
216;BME280;64590;48.81286795;9.14184224;2023-02-02T04:55:52;98946.78;;;6.49;73.50
216;BME280;64590;48.81286795;9.14184224;2023-02-02T04:58:18;98932.34;;;6.40;73.65
216;BME280;64590;48.81286795;9.14184224;2023-02-02T05:00:45;98952.41;;;6.53;72.97
216;BME280;64590;48.81286795;9.14184224;2023-02-02T05:03:13;98944.53;;;6.39;73.77
216;BME280;64590;48.81286795;9.14184224;2023-02-02T05:05:39;98932.25;;;6.36;73.49
216;BME280;64590;48.81286795;9.14184224;2023-02-02T05:08:06;98928.19;;;6.46;73.96
216;BME280;64590;48.81286795;9.14184224;2023-02-02T05:10:34;98947.94;;;6.48;73.29
216;BME280;64590;48.81286795;9.14184224;2023-02-02T05:13:00;98937.53;;;6.29;74.09
216;BME280;64590;48.81286795;9.14184224;2023-02-02T05:15:27;98945.16;;;6.48;73.58
216;BME280;64590;48.81286795;9.14184224;2023-02-02T05:17:53;98966.34;;;6.44;73.40
216;BME280;64590;48.81286795;9.14184224;2023-02-02T05:20:21;98948.19;;;6.43;73.64
216;BME280;64590;48.81286795;9.14184224;2023-02-02T05:22:48;98949.44;;;6.45;73.79
216;BME280;64590;48.81286795;9.14184224;2023-02-02T05:25:15;98952.66;;;6.47;73.45
216;BME280;64590;48.81286795;9.14184224;2023-02-02T05:27:42;98952.09;;;6.42;74.06
216;BME280;64590;48.81286795;9.14184224;2023-02-02T05:30:10;98958.41;;;6.42;73.38
216;BME280;64590;48.81286795;9.14184224;2023-02-02T05:32:37;98960.25;;;6.38;74.29
216;BME280;64590;48.81286795;9.14184224;2023-02-02T05:35:04;98949.16;;;6.35;74.01
216;BME280;64590;48.81286795;9.14184224;2023-02-02T05:37:32;98960.50;;;6.33;74.20
216;BME280;64590;48.81286795;9.14184224;2023-02-02T05:39:59;98953.59;;;6.39;74.17
216;BME280;64590;48.81286795;9.14184224;2023-02-02T05:42:25;98951.19;;;6.38;73.97
216;BME280;64590;48.81286795;9.14184224;2023-02-02T05:44:52;98957.59;;;6.42;73.58
216;BME280;64590;48.81286795;9.14184224;2023-02-02T05:47:19;98953.50;;;6.36;74.29
216;BME280;64590;48.81286795;9.14184224;2023-02-02T05:49:46;98959.91;;;6.40;74.42
216;BME280;64590;48.81286795;9.14184224;2023-02-02T05:52:15;98967.16;;;6.32;74.70
216;BME280;64590;48.81286795;9.14184224;2023-02-02T05:54:44;98948.44;;;6.38;74.34
216;BME280;64590;48.81286795;9.14184224;2023-02-02T05:57:11;98959.47;;;6.38;74.23
216;BME280;64590;48.81286795;9.14184224;2023-02-02T05:59:38;98955.06;;;6.49;73.84
216;BME280;64590;48.81286795;9.14184224;2023-02-02T06:02:04;98956.78;;;6.54;73.72
216;BME280;64590;48.81286795;9.14184224;2023-02-02T06:04:31;98946.56;;;6.42;73.90
216;BME280;64590;48.81286795;9.14184224;2023-02-02T06:06:57;98957.34;;;6.47;73.66
216;BME280;64590;48.81286795;9.14184224;2023-02-02T06:09:24;98961.72;;;6.48;73.64
216;BME280;64590;48.81286795;9.14184224;2023-02-02T06:11:52;98946.31;;;6.47;74.12
216;BME280;64590;48.81286795;9.14184224;2023-02-02T06:14:18;98956.84;;;6.57;73.65
216;BME280;64590;48.81286795;9.14184224;2023-02-02T06:16:45;98961.63;;;6.44;73.78
216;BME280;64590;48.81286795;9.14184224;2023-02-02T06:19:12;98965.31;;;6.36;74.33
216;BME280;64590;48.81286795;9.14184224;2023-02-02T06:21:38;98976.72;;;6.35;74.54
216;BME280;64590;48.81286795;9.14184224;2023-02-02T06:24:05;98974.63;;;6.44;74.30
216;BME280;64590;48.81286795;9.14184224;2023-02-02T06:26:32;98981.94;;;6.52;74.00
216;BME280;64590;48.81286795;9.14184224;2023-02-02T06:29:00;98987.56;;;6.56;73.24
216;BME280;64590;48.81286795;9.14184224;2023-02-02T06:31:27;98976.09;;;6.41;73.97
216;BME280;64590;48.81286795;9.14184224;2023-02-02T06:33:55;98995.06;;;6.43;74.06
216;BME280;64590;48.81286795;9.14184224;2023-02-02T06:36:22;98985.44;;;6.37;74.07
216;BME280;64590;48.81286795;9.14184224;2023-02-02T06:38:50;98979.69;;;6.30;74.65
216;BME280;64590;48.81286795;9.14184224;2023-02-02T06:41:17;98987.97;;;6.30;74.62
216;BME280;64590;48.81286795;9.14184224;2023-02-02T06:43:44;98987.84;;;6.38;74.40
216;BME280;64590;48.81286795;9.14184224;2023-02-02T06:46:13;98998.63;;;6.43;74.32
216;BME280;64590;48.81286795;9.14184224;2023-02-02T06:48:40;98990.22;;;6.52;74.07
216;BME280;64590;48.81286795;9.14184224;2023-02-02T06:51:07;98995.97;;;6.47;74.10
216;BME280;64590;48.81286795;9.14184224;2023-02-02T06:53:34;98991.25;;;6.47;73.93
216;BME280;64590;48.81286795;9.14184224;2023-02-02T06:56:03;98989.56;;;6.71;73.24
216;BME280;64590;48.81286795;9.14184224;2023-02-02T06:58:30;98999.97;;;6.49;73.90
216;BME280;64590;48.81286795;9.14184224;2023-02-02T07:01:00;98999.88;;;6.46;74.12
216;BME280;64590;48.81286795;9.14184224;2023-02-02T07:03:30;98997.44;;;6.57;73.59
216;BME280;64590;48.81286795;9.14184224;2023-02-02T07:05:57;98995.63;;;6.48;73.48
216;BME280;64590;48.81286795;9.14184224;2023-02-02T07:08:24;99001.03;;;6.45;74.03
216;BME280;64590;48.81286795;9.14184224;2023-02-02T07:10:50;99001.03;;;6.45;73.76
216;BME280;64590;48.81286795;9.14184224;2023-02-02T07:13:17;99001.47;;;6.47;73.54
216;BME280;64590;48.81286795;9.14184224;2023-02-02T07:15:43;98998.50;;;6.40;73.87
216;BME280;64590;48.81286795;9.14184224;2023-02-02T07:18:10;99003.78;;;6.45;73.97
216;BME280;64590;48.81286795;9.14184224;2023-02-02T07:20:38;99005.03;;;6.47;73.93
216;BME280;64590;48.81286795;9.14184224;2023-02-02T07:23:04;99003.44;;;6.46;73.41
216;BME280;64590;48.81286795;9.14184224;2023-02-02T07:25:31;98996.53;;;6.53;73.02
216;BME280;64590;48.81286795;9.14184224;2023-02-02T07:27:57;99004.09;;;6.56;73.49
216;BME280;64590;48.81286795;9.14184224;2023-02-02T07:30:24;99010.41;;;6.56;73.40
216;BME280;64590;48.81286795;9.14184224;2023-02-02T07:32:54;99013.25;;;6.60;72.89
216;BME280;64590;48.81286795;9.14184224;2023-02-02T07:35:20;99017.97;;;6.59;73.27
216;BME280;64590;48.81286795;9.14184224;2023-02-02T07:37:51;99007.44;;;6.49;73.79
216;BME280;64590;48.81286795;9.14184224;2023-02-02T07:40:18;99024.78;;;6.49;73.78
216;BME280;64590;48.81286795;9.14184224;2023-02-02T07:42:45;99006.81;;;6.68;72.89
216;BME280;64590;48.81286795;9.14184224;2023-02-02T07:45:11;99022.91;;;6.66;72.68
216;BME280;64590;48.81286795;9.14184224;2023-02-02T07:47:38;99012.47;;;6.59;72.63
216;BME280;64590;48.81286795;9.14184224;2023-02-02T07:50:05;99016.81;;;6.60;72.71
216;BME280;64590;48.81286795;9.14184224;2023-02-02T07:52:32;99022.25;;;6.57;72.90
216;BME280;64590;48.81286795;9.14184224;2023-02-02T07:54:59;99014.78;;;6.57;72.80
216;BME280;64590;48.81286795;9.14184224;2023-02-02T07:57:26;99005.69;;;6.57;72.68
216;BME280;64590;48.81286795;9.14184224;2023-02-02T07:59:52;98995.97;;;6.75;72.27
216;BME280;64590;48.81286795;9.14184224;2023-02-02T08:02:19;98989.66;;;6.74;72.28
216;BME280;64590;48.81286795;9.14184224;2023-02-02T08:04:46;98983.69;;;6.72;72.07
216;BME280;64590;48.81286795;9.14184224;2023-02-02T08:07:12;98989.00;;;6.65;72.21
216;BME280;64590;48.81286795;9.14184224;2023-02-02T08:09:44;98980.38;;;6.67;72.05
216;BME280;64590;48.81286795;9.14184224;2023-02-02T08:12:12;98991.53;;;6.70;72.16
216;BME280;64590;48.81286795;9.14184224;2023-02-02T08:14:39;98993.34;;;6.78;72.14
216;BME280;64590;48.81286795;9.14184224;2023-02-02T08:17:05;98999.53;;;6.75;71.94
216;BME280;64590;48.81286795;9.14184224;2023-02-02T08:19:32;99005.78;;;6.72;72.29
216;BME280;64590;48.81286795;9.14184224;2023-02-02T08:21:58;98999.00;;;6.70;72.06
216;BME280;64590;48.81286795;9.14184224;2023-02-02T08:24:25;99018.25;;;6.82;71.48
216;BME280;64590;48.81286795;9.14184224;2023-02-02T08:26:51;99021.28;;;7.05;71.01
216;BME280;64590;48.81286795;9.14184224;2023-02-02T08:29:19;99025.34;;;6.95;71.13
216;BME280;64590;48.81286795;9.14184224;2023-02-02T08:31:46;99037.19;;;6.96;70.88
216;BME280;64590;48.81286795;9.14184224;2023-02-02T08:34:13;99043.88;;;7.11;70.59
216;BME280;64590;48.81286795;9.14184224;2023-02-02T08:36:39;99048.31;;;6.99;70.37
216;BME280;64590;48.81286795;9.14184224;2023-02-02T08:39:08;99054.78;;;6.91;71.33
216;BME280;64590;48.81286795;9.14184224;2023-02-02T08:41:35;99049.13;;;7.00;71.44
216;BME280;64590;48.81286795;9.14184224;2023-02-02T08:44:04;99047.00;;;7.09;70.70
216;BME280;64590;48.81286795;9.14184224;2023-02-02T08:46:32;99060.09;;;7.12;70.77
216;BME280;64590;48.81286795;9.14184224;2023-02-02T08:48:59;99072.72;;;6.97;70.95
216;BME280;64590;48.81286795;9.14184224;2023-02-02T08:51:25;99083.97;;;6.92;71.25
216;BME280;64590;48.81286795;9.14184224;2023-02-02T08:53:52;99081.34;;;6.96;70.86
216;BME280;64590;48.81286795;9.14184224;2023-02-02T08:56:20;99083.78;;;6.85;71.64
216;BME280;64590;48.81286795;9.14184224;2023-02-02T08:58:49;99081.59;;;6.91;71.52
216;BME280;64590;48.81286795;9.14184224;2023-02-02T09:01:17;99087.00;;;6.87;71.91
216;BME280;64590;48.81286795;9.14184224;2023-02-02T09:03:46;99087.19;;;6.94;71.89
216;BME280;64590;48.81286795;9.14184224;2023-02-02T09:06:14;99080.34;;;6.88;71.71
216;BME280;64590;48.81286795;9.14184224;2023-02-02T09:08:42;99086.53;;;6.85;72.31
216;BME280;64590;48.81286795;9.14184224;2023-02-02T09:11:10;99087.91;;;6.91;72.36
216;BME280;64590;48.81286795;9.14184224;2023-02-02T09:13:38;99097.09;;;6.95;72.06
216;BME280;64590;48.81286795;9.14184224;2023-02-02T09:16:08;99088.31;;;7.05;72.03
216;BME280;64590;48.81286795;9.14184224;2023-02-02T09:18:34;99084.56;;;6.86;72.53
216;BME280;64590;48.81286795;9.14184224;2023-02-02T09:21:04;99088.00;;;6.95;72.72
216;BME280;64590;48.81286795;9.14184224;2023-02-02T09:23:33;99087.03;;;7.03;72.36
216;BME280;64590;48.81286795;9.14184224;2023-02-02T09:26:08;99095.81;;;7.05;72.08
216;BME280;64590;48.81286795;9.14184224;2023-02-02T09:28:35;99079.56;;;7.03;72.40
216;BME280;64590;48.81286795;9.14184224;2023-02-02T09:31:01;99088.53;;;7.13;72.40
216;BME280;64590;48.81286795;9.14184224;2023-02-02T09:33:28;99095.22;;;6.99;72.18
216;BME280;64590;48.81286795;9.14184224;2023-02-02T09:35:55;99099.88;;;6.95;72.75
216;BME280;64590;48.81286795;9.14184224;2023-02-02T09:38:23;99098.88;;;7.03;72.39
216;BME280;64590;48.81286795;9.14184224;2023-02-02T09:40:49;99107.25;;;6.79;73.49
216;BME280;64590;48.81286795;9.14184224;2023-02-02T09:43:25;99098.63;;;6.80;73.25
216;BME280;64590;48.81286795;9.14184224;2023-02-02T09:46:06;99101.59;;;6.88;73.24
216;BME280;64590;48.81286795;9.14184224;2023-02-02T09:48:41;99111.63;;;6.80;73.85
216;BME280;64590;48.81286795;9.14184224;2023-02-02T09:51:14;99099.88;;;6.83;73.63
216;BME280;64590;48.81286795;9.14184224;2023-02-02T09:53:46;99126.22;;;6.80;73.70
216;BME280;64590;48.81286795;9.14184224;2023-02-02T09:56:20;99118.31;;;6.79;74.61
216;BME280;64590;48.81286795;9.14184224;2023-02-02T09:58:49;99117.34;;;6.87;74.54
216;BME280;64590;48.81286795;9.14184224;2023-02-02T10:01:19;99121.84;;;6.79;75.01
216;BME280;64590;48.81286795;9.14184224;2023-02-02T10:03:56;99111.72;;;6.84;74.56
216;BME280;64590;48.81286795;9.14184224;2023-02-02T10:06:30;99123.69;;;6.88;74.80
216;BME280;64590;48.81286795;9.14184224;2023-02-02T10:09:05;99123.88;;;6.95;74.58
216;BME280;64590;48.81286795;9.14184224;2023-02-02T10:11:36;99121.94;;;6.95;74.44
216;BME280;64590;48.81286795;9.14184224;2023-02-02T10:14:11;99112.28;;;6.89;74.01
216;BME280;64590;48.81286795;9.14184224;2023-02-02T10:16:43;99125.25;;;7.01;73.93
216;BME280;64590;48.81286795;9.14184224;2023-02-02T10:19:13;99117.31;;;6.99;73.99
216;BME280;64590;48.81286795;9.14184224;2023-02-02T10:21:45;99123.31;;;6.89;74.13
216;BME280;64590;48.81286795;9.14184224;2023-02-02T10:24:18;99129.28;;;6.91;74.03
216;BME280;64590;48.81286795;9.14184224;2023-02-02T10:26:47;99133.16;;;7.02;73.86
216;BME280;64590;48.81286795;9.14184224;2023-02-02T10:29:17;99127.41;;;7.07;73.42
216;BME280;64590;48.81286795;9.14184224;2023-02-02T10:31:52;99137.28;;;7.08;72.82
216;BME280;64590;48.81286795;9.14184224;2023-02-02T10:34:27;99130.09;;;6.92;72.87
216;BME280;64590;48.81286795;9.14184224;2023-02-02T10:37:14;99130.59;;;6.82;73.55
216;BME280;64590;48.81286795;9.14184224;2023-02-02T10:39:51;99146.97;;;7.02;73.38
216;BME280;64590;48.81286795;9.14184224;2023-02-02T10:42:27;99137.88;;;7.02;73.56
216;BME280;64590;48.81286795;9.14184224;2023-02-02T10:44:58;99144.69;;;6.92;72.62
216;BME280;64590;48.81286795;9.14184224;2023-02-02T10:47:27;99146.78;;;6.95;73.62
216;BME280;64590;48.81286795;9.14184224;2023-02-02T10:50:02;99150.44;;;6.99;73.31
216;BME280;64590;48.81286795;9.14184224;2023-02-02T10:52:33;99146.81;;;7.11;73.23
216;BME280;64590;48.81286795;9.14184224;2023-02-02T10:55:05;99146.59;;;7.16;72.53
216;BME280;64590;48.81286795;9.14184224;2023-02-02T10:57:45;99133.94;;;7.15;72.50
216;BME280;64590;48.81286795;9.14184224;2023-02-02T11:00:20;99124.75;;;7.11;72.30
216;BME280;64590;48.81286795;9.14184224;2023-02-02T11:02:48;99135.47;;;7.13;71.98
216;BME280;64590;48.81286795;9.14184224;2023-02-02T11:05:19;99131.63;;;7.17;72.07
216;BME280;64590;48.81286795;9.14184224;2023-02-02T11:08:11;99129.38;;;7.07;72.24
216;BME280;64590;48.81286795;9.14184224;2023-02-02T11:10:40;99132.22;;;7.11;71.73
216;BME280;64590;48.81286795;9.14184224;2023-02-02T11:13:13;99120.03;;;7.12;71.63
216;BME280;64590;48.81286795;9.14184224;2023-02-02T11:15:41;99131.72;;;7.21;71.91
216;BME280;64590;48.81286795;9.14184224;2023-02-02T11:18:26;99119.34;;;7.15;72.01
216;BME280;64590;48.81286795;9.14184224;2023-02-02T11:20:53;99108.94;;;7.24;72.23
216;BME280;64590;48.81286795;9.14184224;2023-02-02T11:23:20;99113.72;;;7.39;71.83
216;BME280;64590;48.81286795;9.14184224;2023-02-02T11:25:58;99121.69;;;7.56;71.11
216;BME280;64590;48.81286795;9.14184224;2023-02-02T11:28:34;99126.25;;;7.36;71.64
216;BME280;64590;48.81286795;9.14184224;2023-02-02T11:31:01;99112.09;;;7.38;71.35
216;BME280;64590;48.81286795;9.14184224;2023-02-02T11:33:29;99126.75;;;7.26;71.82
216;BME280;64590;48.81286795;9.14184224;2023-02-02T11:35:59;99117.63;;;7.38;71.67
216;BME280;64590;48.81286795;9.14184224;2023-02-02T11:38:27;99128.78;;;7.42;71.69
216;BME280;64590;48.81286795;9.14184224;2023-02-02T11:40:58;99126.41;;;7.28;71.90
216;BME280;64590;48.81286795;9.14184224;2023-02-02T11:43:29;99112.97;;;7.26;71.81
216;BME280;64590;48.81286795;9.14184224;2023-02-02T11:45:58;99123.78;;;7.19;71.93
216;BME280;64590;48.81286795;9.14184224;2023-02-02T11:48:30;99123.91;;;7.23;72.24
216;BME280;64590;48.81286795;9.14184224;2023-02-02T11:50:59;99132.19;;;7.23;72.40
216;BME280;64590;48.81286795;9.14184224;2023-02-02T11:53:28;99129.38;;;7.07;72.69
216;BME280;64590;48.81286795;9.14184224;2023-02-02T11:56:00;99121.19;;;7.11;73.25
216;BME280;64590;48.81286795;9.14184224;2023-02-02T11:58:28;99129.66;;;7.18;72.18
216;BME280;64590;48.81286795;9.14184224;2023-02-02T12:00:58;99123.94;;;7.11;72.59
216;BME280;64590;48.81286795;9.14184224;2023-02-02T12:03:31;99122.47;;;7.13;71.91
216;BME280;64590;48.81286795;9.14184224;2023-02-02T12:05:58;99125.09;;;7.09;72.79
216;BME280;64590;48.81286795;9.14184224;2023-02-02T12:08:27;99130.16;;;7.07;72.31